createdAt,value
2023-05-08T00:01:24.683Z,4.05
2023-05-08T00:03:52.377Z,4.03
2023-05-08T00:06:19.457Z,3.75
2023-05-08T00:08:46.123Z,4.65
2023-05-08T00:11:12.887Z,4.55
2023-05-08T00:13:39.563Z,4.40
2023-05-08T00:16:06.479Z,3.83
2023-05-08T00:18:33.086Z,4.88
2023-05-08T00:20:59.696Z,4.38
2023-05-08T00:23:26.322Z,4.93
2023-05-08T00:25:53.016Z,4.15
2023-05-08T00:28:19.714Z,3.92
2023-05-08T00:30:46.429Z,4.15
2023-05-08T00:33:13.043Z,3.90
2023-05-08T00:35:39.771Z,4.13
2023-05-08T00:38:06.480Z,4.45
2023-05-08T00:40:33.191Z,3.88
2023-05-08T00:42:59.811Z,4.82
2023-05-08T00:45:33.320Z,4.38
2023-05-08T00:48:00.307Z,4.68
2023-05-08T00:50:27.122Z,4.95
2023-05-08T00:52:54.454Z,5.57
2023-05-08T00:55:21.298Z,5.50
2023-05-08T00:57:48.181Z,5.22
2023-05-08T01:00:18.548Z,5.22
2023-05-08T01:02:46.585Z,4.50
2023-05-08T01:07:40.062Z,5.40
2023-05-08T01:10:07.263Z,5.32
2023-05-08T01:12:51.827Z,5.93
2023-05-08T01:15:35.219Z,6.38
2023-05-08T01:18:15.626Z,5.75
2023-05-08T01:20:48.829Z,5.70
2023-05-08T01:23:34.443Z,5.90
2023-05-08T01:26:19.635Z,5.80
2023-05-08T01:29:13.267Z,5.88
2023-05-08T01:32:10.540Z,5.43
2023-05-08T01:34:43.275Z,5.78
2023-05-08T01:37:15.134Z,5.45
2023-05-08T01:39:51.157Z,5.78
2023-05-08T01:42:26.267Z,6.35
2023-05-08T01:45:07.716Z,7.78
2023-05-08T01:47:37.940Z,5.57
2023-05-08T01:50:14.129Z,5.53
2023-05-08T01:52:46.720Z,5.20
2023-05-08T01:55:20.751Z,5.57
2023-05-08T01:57:51.962Z,5.13
2023-05-08T02:00:21.226Z,4.93
2023-05-08T02:02:49.722Z,4.95
2023-05-08T02:05:18.282Z,5.25
2023-05-08T02:07:49.168Z,5.90
2023-05-08T02:10:17.431Z,5.15
2023-05-08T02:12:47.734Z,5.70
2023-05-08T02:15:16.466Z,4.70
2023-05-08T02:17:46.227Z,4.43
2023-05-08T02:20:14.733Z,4.05
2023-05-08T02:22:48.486Z,5.13
2023-05-08T02:25:16.102Z,3.58
2023-05-08T02:27:45.768Z,3.60
2023-05-08T02:30:14.677Z,3.70
2023-05-08T02:32:44.508Z,4.18
2023-05-08T02:35:16.813Z,4.28
2023-05-08T02:37:46.742Z,4.55
2023-05-08T02:40:15.083Z,4.70
2023-05-08T02:45:10.180Z,5.65
2023-05-08T02:47:44.075Z,4.53
2023-05-08T02:50:19.544Z,4.13
2023-05-08T02:52:52.564Z,4.45
2023-05-08T02:55:28.296Z,4.63
2023-05-08T02:58:17.072Z,4.65
2023-05-08T03:00:50.995Z,3.97
2023-05-08T03:03:27.446Z,3.30
2023-05-08T03:05:57.765Z,3.95
2023-05-08T03:08:30.541Z,4.57
2023-05-08T03:11:01.286Z,4.78
2023-05-08T03:13:31.604Z,3.90
2023-05-08T03:16:01.551Z,4.55
2023-05-08T03:18:36.885Z,4.85
2023-05-08T03:21:05.564Z,4.88
2023-05-08T03:23:36.146Z,4.72
2023-05-08T03:26:03.373Z,4.22
2023-05-08T03:28:31.284Z,4.90
2023-05-08T03:31:00.794Z,3.97
2023-05-08T03:33:29.509Z,4.70
2023-05-08T03:35:57.955Z,5.07
2023-05-08T03:38:24.962Z,5.07
2023-05-08T03:40:53.443Z,4.68
2023-05-08T03:43:21.548Z,5.43
2023-05-08T03:45:48.706Z,4.88
2023-05-08T03:48:16.884Z,4.63
2023-05-08T03:50:44.381Z,5.45
2023-05-08T03:53:10.966Z,5.15
2023-05-08T03:55:37.816Z,5.03
2023-05-08T03:58:22.424Z,4.97
2023-05-08T04:00:48.922Z,4.40
2023-05-08T04:03:23.965Z,5.00
2023-05-08T04:06:00.723Z,4.65
2023-05-08T04:08:32.482Z,5.07
2023-05-08T04:11:09.932Z,5.55
2023-05-08T04:13:49.002Z,4.93
2023-05-08T04:16:27.886Z,4.63
2023-05-08T04:19:01.591Z,4.38
2023-05-08T04:21:32.518Z,6.03
2023-05-08T04:23:59.648Z,4.53
2023-05-08T04:26:28.315Z,6.07
2023-05-08T04:28:57.562Z,4.43
2023-05-08T04:31:24.877Z,4.25
2023-05-08T04:33:51.909Z,4.63
2023-05-08T04:36:18.649Z,4.88
2023-05-08T04:38:45.843Z,4.60
2023-05-08T04:41:13.148Z,5.17
2023-05-08T04:43:40.423Z,5.27
2023-05-08T04:46:07.983Z,5.35
2023-05-08T04:48:34.673Z,5.10
2023-05-08T04:51:01.721Z,4.60
2023-05-08T04:53:28.642Z,4.88
2023-05-08T04:55:55.218Z,3.97
2023-05-08T04:58:21.968Z,4.53
2023-05-08T05:00:49.089Z,5.10
2023-05-08T05:03:15.866Z,4.38
2023-05-08T05:05:43.098Z,4.50
2023-05-08T05:08:09.983Z,3.80
2023-05-08T05:10:38.683Z,4.47
2023-05-08T05:13:05.423Z,4.15
2023-05-08T05:15:32.832Z,4.22
2023-05-08T05:17:59.639Z,4.43
2023-05-08T05:20:26.337Z,5.10
2023-05-08T05:22:53.501Z,4.95
2023-05-08T05:25:20.161Z,5.35
2023-05-08T05:27:47.013Z,4.82
2023-05-08T05:30:14.061Z,5.60
2023-05-08T05:32:41.166Z,5.18
2023-05-08T05:35:09.924Z,4.75
2023-05-08T05:37:36.840Z,4.30
2023-05-08T05:40:04.145Z,4.78
2023-05-08T05:42:32.726Z,6.10
2023-05-08T05:44:59.469Z,5.22
2023-05-08T05:47:26.291Z,4.72
2023-05-08T05:49:53.066Z,5.82
2023-05-08T05:52:19.912Z,5.38
2023-05-08T05:54:46.714Z,4.90
2023-05-08T05:57:13.499Z,5.55
2023-05-08T05:59:41.265Z,4.55
2023-05-08T06:02:08.542Z,4.20
2023-05-08T06:04:35.515Z,4.03
2023-05-08T06:07:02.320Z,5.88
2023-05-08T06:09:28.895Z,5.13
2023-05-08T06:11:55.679Z,4.47
2023-05-08T06:14:22.333Z,5.22
2023-05-08T06:16:49.084Z,5.00
2023-05-08T06:19:15.873Z,4.97
2023-05-08T06:21:42.766Z,4.38
2023-05-08T06:24:09.436Z,4.88
2023-05-08T06:26:36.003Z,5.13
2023-05-08T06:29:02.656Z,4.82
2023-05-08T06:31:29.350Z,5.07
2023-05-08T06:33:56.163Z,5.78
2023-05-08T06:36:22.759Z,5.28
2023-05-08T06:38:49.442Z,4.50
2023-05-08T06:41:16.061Z,4.35
2023-05-08T06:43:42.640Z,4.45
2023-05-08T06:46:09.759Z,4.53
2023-05-08T06:48:36.426Z,5.50
2023-05-08T06:51:03.177Z,4.38
2023-05-08T06:53:29.866Z,6.30
2023-05-08T06:55:56.472Z,4.28
2023-05-08T06:58:23.187Z,4.57
2023-05-08T07:00:49.940Z,4.65
2023-05-08T07:03:17.043Z,5.43
2023-05-08T07:05:43.579Z,5.13
2023-05-08T07:08:10.306Z,5.40
2023-05-08T07:10:36.969Z,5.65
2023-05-08T07:13:03.592Z,4.60
2023-05-08T07:15:32.223Z,5.45
2023-05-08T07:17:58.914Z,6.07
2023-05-08T07:20:25.862Z,4.70
2023-05-08T07:22:52.543Z,5.90
2023-05-08T07:25:19.253Z,5.28
2023-05-08T07:27:45.996Z,6.20
2023-05-08T07:30:13.023Z,5.90
2023-05-08T07:32:39.849Z,5.97
2023-05-08T07:35:09.651Z,5.60
2023-05-08T07:37:36.993Z,5.80
2023-05-08T07:40:03.803Z,6.85
2023-05-08T07:42:30.581Z,6.25
2023-05-08T07:44:57.303Z,5.90
2023-05-08T07:47:23.921Z,6.20
2023-05-08T07:49:50.860Z,4.95
2023-05-08T07:52:17.448Z,6.20
2023-05-08T07:54:44.179Z,5.57
2023-05-08T07:57:10.852Z,6.70
2023-05-08T07:59:37.404Z,6.80
2023-05-08T08:02:04.083Z,6.22
2023-05-08T08:04:30.881Z,6.15
2023-05-08T08:06:57.539Z,7.05
2023-05-08T08:09:24.294Z,7.70
2023-05-08T08:11:50.826Z,7.45
2023-05-08T08:14:17.515Z,6.35
2023-05-08T08:16:44.139Z,8.23
2023-05-08T08:19:10.759Z,7.22
2023-05-08T08:21:42.434Z,7.50
2023-05-08T08:24:09.530Z,7.15
2023-05-08T08:26:36.154Z,7.50
2023-05-08T08:29:02.812Z,7.85
2023-05-08T08:31:29.764Z,7.68
2023-05-08T08:33:56.425Z,8.18
2023-05-08T08:36:23.257Z,8.13
2023-05-08T08:38:49.970Z,7.88
2023-05-08T08:41:16.658Z,7.80
2023-05-08T08:43:43.291Z,7.70
2023-05-08T08:46:14.353Z,7.55
2023-05-08T08:48:46.190Z,6.45
2023-05-08T08:51:24.610Z,6.90
2023-05-08T08:54:00.939Z,8.82
2023-05-08T08:56:28.264Z,7.93
2023-05-08T08:58:57.366Z,8.53
2023-05-08T09:01:24.891Z,8.77
2023-05-08T09:03:51.592Z,9.20
2023-05-08T09:06:19.760Z,9.40
2023-05-08T09:08:47.324Z,7.43
2023-05-08T09:11:14.181Z,8.18
2023-05-08T09:13:40.807Z,8.57
2023-05-08T09:16:07.695Z,8.93
2023-05-08T09:18:34.389Z,8.32
2023-05-08T09:21:01.562Z,8.82
2023-05-08T09:23:28.128Z,8.43
2023-05-08T09:25:54.849Z,10.23
2023-05-08T09:28:23.553Z,8.35
2023-05-08T09:30:52.045Z,9.57
2023-05-08T09:33:19.694Z,8.50
2023-05-08T09:35:46.690Z,9.15
2023-05-08T09:38:32.005Z,9.75
2023-05-08T09:41:25.006Z,7.88
2023-05-08T09:44:05.584Z,7.55
2023-05-08T09:46:33.337Z,8.60
2023-05-08T09:49:01.801Z,11.57
2023-05-08T09:51:30.439Z,10.50
2023-05-08T09:53:58.849Z,11.00
2023-05-08T09:56:36.005Z,11.90
2023-05-08T09:59:04.509Z,10.10
2023-05-08T10:01:33.787Z,10.73
2023-05-08T10:04:00.921Z,10.18
2023-05-08T10:06:28.710Z,9.35
2023-05-08T10:09:08.234Z,11.18
2023-05-08T10:11:35.047Z,10.50
2023-05-08T10:14:01.683Z,12.10
2023-05-08T10:16:30.297Z,12.93
2023-05-08T10:19:01.383Z,12.13
2023-05-08T10:21:29.521Z,11.25
2023-05-08T10:24:01.200Z,13.82
2023-05-08T10:26:31.573Z,10.98
2023-05-08T10:29:01.548Z,10.77
2023-05-08T10:31:29.088Z,12.45
2023-05-08T10:33:56.542Z,10.82
2023-05-08T10:36:26.233Z,12.25
2023-05-08T10:38:54.020Z,11.05
2023-05-08T10:41:21.176Z,11.23
2023-05-08T10:43:49.453Z,11.00
2023-05-08T10:46:29.232Z,10.30
2023-05-08T10:49:22.165Z,12.85
2023-05-08T10:52:10.527Z,10.98
2023-05-08T10:54:51.925Z,11.63
2023-05-08T10:57:18.575Z,9.70
2023-05-08T10:59:46.804Z,13.32
2023-05-08T11:02:14.138Z,11.15
2023-05-08T11:04:41.000Z,9.65
2023-05-08T11:07:07.933Z,11.43
2023-05-08T11:09:43.463Z,11.65
2023-05-08T11:12:21.981Z,11.30
2023-05-08T11:15:03.112Z,12.38
2023-05-08T11:17:29.772Z,10.90
2023-05-08T11:20:01.905Z,11.57
2023-05-08T11:22:36.028Z,11.80
2023-05-08T11:25:06.076Z,11.55
2023-05-08T11:28:04.245Z,11.02
2023-05-08T11:30:33.426Z,9.15
2023-05-08T11:33:06.036Z,10.32
2023-05-08T11:35:47.948Z,9.13
2023-05-08T11:38:22.004Z,8.85
2023-05-08T11:40:54.761Z,10.27
2023-05-08T11:43:33.093Z,9.18
2023-05-08T11:46:01.901Z,9.02
2023-05-08T11:48:28.662Z,8.35
2023-05-08T11:50:55.941Z,10.50
2023-05-08T11:53:23.057Z,10.47
2023-05-08T11:55:50.550Z,9.83
2023-05-08T11:58:17.228Z,11.95
2023-05-08T12:00:45.458Z,11.18
2023-05-08T12:03:17.371Z,9.27
2023-05-08T12:05:44.875Z,10.50
2023-05-08T12:08:13.087Z,10.60
2023-05-08T12:11:00.214Z,11.25
2023-05-08T12:13:29.294Z,11.15
2023-05-08T12:16:00.876Z,12.38
2023-05-08T12:18:28.744Z,12.40
2023-05-08T12:23:31.492Z,11.20
2023-05-08T12:26:02.008Z,10.50
2023-05-08T12:28:29.049Z,11.93
2023-05-08T12:30:56.444Z,12.07
2023-05-08T12:33:24.121Z,12.55
2023-05-08T12:35:51.041Z,12.55
2023-05-08T12:38:17.667Z,12.60
2023-05-08T12:40:46.344Z,12.65
2023-05-08T12:43:13.403Z,11.85
2023-05-08T12:45:42.143Z,12.35
2023-05-08T12:48:13.715Z,14.35
2023-05-08T12:50:42.557Z,12.25
2023-05-08T12:53:14.165Z,11.55
2023-05-08T12:55:53.603Z,13.88
2023-05-08T12:58:24.308Z,12.73
2023-05-08T13:00:52.524Z,12.82
2023-05-08T13:03:25.138Z,12.73
2023-05-08T13:05:53.023Z,10.93
2023-05-08T13:08:20.140Z,10.65
2023-05-08T13:10:51.985Z,12.30
2023-05-08T13:13:20.614Z,14.30
2023-05-08T13:15:48.786Z,11.70
2023-05-08T13:18:16.851Z,11.13
2023-05-08T13:20:44.265Z,12.20
2023-05-08T13:23:11.146Z,10.80
2023-05-08T13:25:38.751Z,11.55
2023-05-08T13:28:06.175Z,10.82
2023-05-08T13:30:33.493Z,10.43
2023-05-08T13:33:00.522Z,10.23
2023-05-08T13:35:27.442Z,9.73
2023-05-08T13:37:58.105Z,8.95
2023-05-08T13:40:25.180Z,9.35
2023-05-08T13:42:52.159Z,11.13
2023-05-08T13:45:19.362Z,10.65
2023-05-08T13:47:47.137Z,9.40
2023-05-08T13:50:16.208Z,9.43
2023-05-08T13:52:43.224Z,9.43
2023-05-08T13:55:12.078Z,9.32
2023-05-08T13:57:39.337Z,9.85
2023-05-08T14:00:07.411Z,7.88
2023-05-08T14:05:00.690Z,9.80
2023-05-08T14:07:27.360Z,10.00
2023-05-08T14:09:54.322Z,10.25
2023-05-08T14:12:21.283Z,7.67
2023-05-08T14:14:47.872Z,8.32
2023-05-08T14:17:14.576Z,8.50
2023-05-08T14:19:41.156Z,8.65
2023-05-08T14:22:07.720Z,8.52
2023-05-08T14:24:34.411Z,8.55
2023-05-08T14:27:01.164Z,7.95
2023-05-08T14:29:27.766Z,9.40
2023-05-08T14:31:54.445Z,10.30
2023-05-08T14:34:21.212Z,8.45
2023-05-08T14:36:47.863Z,11.57
2023-05-08T14:39:14.478Z,10.18
2023-05-08T14:41:42.100Z,10.02
2023-05-08T14:44:14.664Z,9.65
2023-05-08T14:46:41.285Z,8.57
2023-05-08T14:49:08.038Z,8.13
2023-05-08T14:51:34.721Z,9.70
2023-05-08T14:54:01.549Z,8.88
2023-05-08T14:56:30.322Z,8.55
2023-05-08T14:59:01.387Z,7.22
2023-05-08T15:01:28.102Z,8.82
2023-05-08T15:03:54.815Z,6.60
2023-05-08T15:06:22.922Z,6.65
2023-05-08T15:08:49.678Z,7.47
2023-05-08T15:11:16.327Z,7.70
2023-05-08T15:13:42.924Z,7.22
2023-05-08T15:16:09.787Z,5.28
2023-05-08T15:18:36.651Z,5.20
2023-05-08T15:21:03.366Z,5.97
2023-05-08T15:23:30.009Z,6.68
2023-05-08T15:25:56.703Z,6.57
2023-05-08T15:28:23.376Z,6.03
2023-05-08T15:30:49.949Z,6.43
2023-05-08T15:33:16.500Z,6.25
2023-05-08T15:35:43.077Z,6.20
2023-05-08T15:38:09.655Z,6.45
2023-05-08T15:40:36.308Z,7.20
2023-05-08T15:43:02.914Z,7.60
2023-05-08T15:45:29.639Z,6.22
2023-05-08T15:47:56.413Z,7.20
2023-05-08T15:50:23.070Z,8.55
2023-05-08T15:52:49.963Z,7.18
2023-05-08T15:55:16.637Z,8.13
2023-05-08T15:57:43.340Z,7.82
2023-05-08T16:00:10.593Z,6.68
2023-05-08T16:02:37.299Z,6.73
2023-05-08T16:05:04.028Z,7.97
2023-05-08T16:07:30.595Z,7.13
2023-05-08T16:09:57.195Z,7.38
2023-05-08T16:12:23.786Z,7.03
2023-05-08T16:14:50.390Z,7.38
2023-05-08T16:17:17.132Z,7.60
2023-05-08T16:19:43.772Z,7.65
2023-05-08T16:22:10.341Z,7.68
2023-05-08T16:24:36.893Z,8.50
2023-05-08T16:27:03.803Z,7.78
2023-05-08T16:29:30.335Z,8.13
2023-05-08T16:31:57.029Z,8.02
2023-05-08T16:34:23.711Z,7.28
2023-05-08T16:36:50.332Z,8.43
2023-05-08T16:39:16.991Z,7.55
2023-05-08T16:41:43.807Z,7.82
2023-05-08T16:44:10.405Z,8.30
2023-05-08T16:46:37.050Z,8.80
2023-05-08T16:49:03.704Z,9.15
2023-05-08T16:51:30.235Z,8.88
2023-05-08T16:53:57.990Z,8.27
2023-05-08T16:56:25.035Z,8.43
2023-05-08T16:58:51.577Z,9.65
2023-05-08T17:01:18.282Z,9.85
2023-05-08T17:03:44.958Z,10.55
2023-05-08T17:06:11.824Z,9.32
2023-05-08T17:08:38.491Z,11.25
2023-05-08T17:11:05.085Z,8.48
2023-05-08T17:13:31.767Z,9.82
2023-05-08T17:15:58.650Z,8.13
2023-05-08T17:18:25.546Z,9.80
2023-05-08T17:20:52.323Z,8.45
2023-05-08T17:23:18.954Z,9.25
2023-05-08T17:25:45.592Z,11.38
2023-05-08T17:28:12.229Z,9.95
2023-05-08T17:30:39.744Z,10.45
2023-05-08T17:33:06.434Z,9.73
2023-05-08T17:35:33.201Z,9.77
2023-05-08T17:37:59.779Z,10.43
2023-05-08T17:40:26.373Z,9.95
2023-05-08T17:42:52.990Z,10.00
2023-05-08T17:45:19.606Z,9.35
2023-05-08T17:47:46.559Z,10.93
2023-05-08T17:50:13.337Z,9.57
2023-05-08T17:52:40.145Z,9.70
2023-05-08T17:55:07.657Z,10.05
2023-05-08T17:57:34.451Z,9.02
2023-05-08T18:00:01.144Z,8.10
2023-05-08T18:02:27.751Z,9.70
2023-05-08T18:04:54.429Z,9.48
2023-05-08T18:07:21.021Z,9.90
2023-05-08T18:09:47.755Z,9.20
2023-05-08T18:12:14.335Z,8.73
2023-05-08T18:14:40.980Z,9.35
2023-05-08T18:17:07.536Z,8.77
2023-05-08T18:19:34.220Z,8.93
2023-05-08T18:22:00.949Z,9.98
2023-05-08T18:24:29.151Z,8.88
2023-05-08T18:29:22.189Z,8.93
2023-05-08T18:31:48.852Z,8.52
2023-05-08T18:34:15.428Z,9.07
2023-05-08T18:36:41.996Z,9.50
2023-05-08T18:39:08.567Z,8.38
2023-05-08T18:41:35.226Z,8.98
2023-05-08T18:44:02.124Z,8.27
2023-05-08T18:46:28.712Z,8.88
2023-05-08T18:48:55.358Z,8.93
2023-05-08T18:51:21.985Z,9.32
2023-05-08T18:53:48.587Z,9.20
2023-05-08T18:56:15.173Z,9.10
2023-05-08T18:58:41.781Z,10.02
2023-05-08T19:01:08.388Z,8.90
2023-05-08T19:03:35.062Z,8.93
2023-05-08T19:06:01.998Z,8.48
2023-05-08T19:08:28.752Z,8.80
2023-05-08T19:10:55.308Z,8.90
2023-05-08T19:13:21.959Z,9.23
2023-05-08T19:15:48.761Z,10.00
2023-05-08T19:18:15.333Z,8.23
2023-05-08T19:20:42.037Z,8.95
2023-05-08T19:23:08.973Z,9.10
2023-05-08T19:25:38.414Z,7.78
2023-05-08T19:28:05.220Z,8.70
2023-05-08T19:30:31.841Z,9.52
2023-05-08T19:32:58.408Z,8.50
2023-05-08T19:35:25.174Z,9.27
2023-05-08T19:37:51.759Z,8.05
2023-05-08T19:40:18.480Z,8.90
2023-05-08T19:42:45.060Z,8.35
2023-05-08T19:45:12.907Z,8.93
2023-05-08T19:47:39.547Z,8.45
2023-05-08T19:50:06.774Z,8.15
2023-05-08T19:52:33.404Z,8.70
2023-05-08T19:54:59.966Z,9.15
2023-05-08T19:57:26.866Z,9.30
2023-05-08T19:59:53.429Z,9.75
2023-05-08T20:02:19.984Z,8.07
2023-05-08T20:05:18.194Z,8.40
2023-05-08T20:07:33.143Z,8.10
2023-05-08T20:09:59.752Z,9.52
2023-05-08T20:12:26.600Z,7.80
2023-05-08T20:14:53.264Z,9.25
2023-05-08T20:17:19.937Z,7.85
2023-05-08T20:19:46.515Z,9.15
2023-05-08T20:22:13.103Z,9.05
2023-05-08T20:24:39.697Z,8.98
2023-05-08T20:27:06.318Z,9.73
2023-05-08T20:29:32.956Z,9.55
2023-05-08T20:31:59.683Z,9.18
2023-05-08T20:34:26.447Z,8.80
2023-05-08T20:36:53.032Z,9.02
2023-05-08T20:39:20.084Z,8.77
2023-05-08T20:41:46.641Z,9.43
2023-05-08T20:44:13.272Z,9.52
2023-05-08T20:46:39.954Z,10.00
2023-05-08T20:49:06.577Z,9.55
2023-05-08T20:51:33.140Z,8.40
2023-05-08T20:53:59.936Z,8.93
2023-05-08T20:56:26.532Z,7.35
2023-05-08T20:58:53.201Z,8.05
2023-05-08T21:01:21.062Z,8.30
2023-05-08T21:06:14.589Z,7.35
2023-05-08T21:08:41.187Z,6.82
2023-05-08T21:11:07.823Z,7.07
2023-05-08T21:13:34.528Z,7.47
2023-05-08T21:16:01.147Z,6.82
2023-05-08T21:18:27.802Z,6.93
2023-05-08T21:20:54.432Z,6.60
2023-05-08T21:23:21.062Z,7.05
2023-05-08T21:25:50.690Z,6.03
2023-05-08T21:28:17.562Z,7.00
2023-05-08T21:30:44.867Z,6.53
2023-05-08T21:33:12.238Z,7.20
2023-05-08T21:35:42.031Z,5.68
2023-05-08T21:38:09.478Z,5.22
2023-05-08T21:40:36.139Z,6.05
2023-05-08T21:43:02.767Z,6.57
2023-05-08T21:45:31.087Z,6.13
2023-05-08T21:47:58.763Z,6.63
2023-05-08T21:50:25.974Z,6.72
2023-05-08T21:52:52.675Z,6.35
2023-05-08T21:55:19.989Z,6.43
2023-05-08T21:57:46.535Z,5.33
2023-05-08T22:00:13.774Z,5.90
2023-05-08T22:02:46.337Z,5.75
2023-05-08T22:05:13.320Z,6.13
2023-05-08T22:07:40.088Z,5.78
2023-05-08T22:10:07.420Z,6.65
2023-05-08T22:12:34.009Z,7.67
2023-05-08T22:15:00.774Z,6.63
2023-05-08T22:17:27.577Z,7.25
2023-05-08T22:19:54.137Z,5.80
2023-05-08T22:22:20.874Z,6.88
2023-05-08T22:24:47.472Z,6.10
2023-05-08T22:27:14.039Z,6.60
2023-05-08T22:29:40.773Z,6.72
2023-05-08T22:32:07.530Z,5.75
2023-05-08T22:34:34.290Z,6.10
2023-05-08T22:37:01.003Z,6.65
2023-05-08T22:39:27.787Z,6.20
2023-05-08T22:41:54.722Z,5.53
2023-05-08T22:44:21.661Z,6.28
2023-05-08T22:46:48.300Z,5.95
2023-05-08T22:49:15.071Z,7.20
2023-05-08T22:51:41.766Z,6.18
2023-05-08T22:54:08.357Z,6.88
2023-05-08T22:56:35.050Z,7.47
2023-05-08T22:59:01.763Z,6.22
2023-05-08T23:01:28.336Z,7.90
2023-05-08T23:03:55.069Z,6.30
2023-05-08T23:06:21.695Z,6.93
2023-05-08T23:08:48.369Z,6.60
2023-05-08T23:11:15.462Z,6.88
2023-05-08T23:13:42.144Z,6.47
2023-05-08T23:16:08.707Z,5.55
2023-05-08T23:18:35.346Z,5.78
2023-05-08T23:21:06.591Z,6.82
2023-05-08T23:23:33.662Z,6.45
2023-05-08T23:26:00.712Z,7.38
2023-05-08T23:28:27.589Z,6.72
2023-05-08T23:30:54.320Z,6.53
2023-05-08T23:33:21.092Z,6.57
2023-05-08T23:35:47.690Z,5.85
2023-05-08T23:38:14.432Z,5.32
2023-05-08T23:40:41.015Z,5.15
2023-05-08T23:43:07.746Z,5.85
2023-05-08T23:45:34.300Z,5.55
2023-05-08T23:48:00.891Z,5.55
2023-05-08T23:50:27.633Z,6.35
2023-05-08T23:52:54.284Z,6.57
2023-05-08T23:55:22.374Z,6.20
2023-05-08T23:57:49.058Z,6.22
